sensor_id;sensor_type;location;lat;lon;timestamp;P1;durP1;ratioP1;P2;durP2;ratioP2
58310;SDS011;45001;52.218;5.154;2022-08-03T00:01:17;3.83;;;1.48;;
58310;SDS011;45001;52.218;5.154;2022-08-03T00:03:43;3.83;;;1.50;;
58310;SDS011;45001;52.218;5.154;2022-08-03T00:06:08;4.55;;;1.50;;
58310;SDS011;45001;52.218;5.154;2022-08-03T00:08:34;3.80;;;1.70;;
58310;SDS011;45001;52.218;5.154;2022-08-03T00:10:59;3.88;;;1.65;;
58310;SDS011;45001;52.218;5.154;2022-08-03T00:13:24;4.20;;;1.77;;
58310;SDS011;45001;52.218;5.154;2022-08-03T00:15:50;4.72;;;1.60;;
58310;SDS011;45001;52.218;5.154;2022-08-03T00:18:15;3.95;;;1.60;;
58310;SDS011;45001;52.218;5.154;2022-08-03T00:20:41;3.58;;;1.52;;
58310;SDS011;45001;52.218;5.154;2022-08-03T00:23:06;3.60;;;1.42;;
58310;SDS011;45001;52.218;5.154;2022-08-03T00:25:32;4.22;;;1.45;;
58310;SDS011;45001;52.218;5.154;2022-08-03T00:27:59;3.45;;;1.48;;
58310;SDS011;45001;52.218;5.154;2022-08-03T00:30:25;4.22;;;1.70;;
58310;SDS011;45001;52.218;5.154;2022-08-03T00:32:50;4.40;;;1.48;;
58310;SDS011;45001;52.218;5.154;2022-08-03T00:35:15;3.90;;;1.38;;
58310;SDS011;45001;52.218;5.154;2022-08-03T00:37:41;3.08;;;1.30;;
58310;SDS011;45001;52.218;5.154;2022-08-03T00:40:06;3.10;;;1.35;;
58310;SDS011;45001;52.218;5.154;2022-08-03T00:42:33;3.35;;;1.45;;
58310;SDS011;45001;52.218;5.154;2022-08-03T00:44:58;3.42;;;1.30;;
58310;SDS011;45001;52.218;5.154;2022-08-03T00:47:24;2.78;;;1.02;;
58310;SDS011;45001;52.218;5.154;2022-08-03T00:49:49;3.03;;;1.13;;
58310;SDS011;45001;52.218;5.154;2022-08-03T00:52:14;4.20;;;1.40;;
58310;SDS011;45001;52.218;5.154;2022-08-03T00:54:41;3.28;;;1.50;;
58310;SDS011;45001;52.218;5.154;2022-08-03T00:57:06;3.25;;;1.60;;
58310;SDS011;45001;52.218;5.154;2022-08-03T00:59:31;2.30;;;1.17;;
58310;SDS011;45001;52.218;5.154;2022-08-03T01:01:57;2.25;;;1.10;;
58310;SDS011;45001;52.218;5.154;2022-08-03T01:04:23;2.85;;;1.20;;
58310;SDS011;45001;52.218;5.154;2022-08-03T01:06:54;3.15;;;1.10;;
58310;SDS011;45001;52.218;5.154;2022-08-03T01:15:09;2.92;;;1.10;;
58310;SDS011;45001;52.218;5.154;2022-08-03T01:18:08;2.65;;;1.02;;
58310;SDS011;45001;52.218;5.154;2022-08-03T01:20:42;3.83;;;1.35;;
58310;SDS011;45001;52.218;5.154;2022-08-03T01:23:20;2.70;;;1.05;;
58310;SDS011;45001;52.218;5.154;2022-08-03T01:31:52;2.92;;;1.10;;
58310;SDS011;45001;52.218;5.154;2022-08-03T01:37:09;3.35;;;1.17;;
58310;SDS011;45001;52.218;5.154;2022-08-03T01:39:36;2.22;;;1.00;;
58310;SDS011;45001;52.218;5.154;2022-08-03T01:44:35;3.65;;;1.20;;
58310;SDS011;45001;52.218;5.154;2022-08-03T01:47:03;3.28;;;1.00;;
58310;SDS011;45001;52.218;5.154;2022-08-03T01:49:30;2.60;;;1.33;;
58310;SDS011;45001;52.218;5.154;2022-08-03T01:52:00;2.70;;;1.10;;
58310;SDS011;45001;52.218;5.154;2022-08-03T01:54:27;2.63;;;1.00;;
58310;SDS011;45001;52.218;5.154;2022-08-03T01:56:54;2.75;;;1.00;;
58310;SDS011;45001;52.218;5.154;2022-08-03T01:59:21;2.70;;;1.13;;
58310;SDS011;45001;52.218;5.154;2022-08-03T02:01:47;3.67;;;1.17;;
58310;SDS011;45001;52.218;5.154;2022-08-03T02:04:14;3.45;;;1.00;;
58310;SDS011;45001;52.218;5.154;2022-08-03T02:06:42;2.38;;;1.10;;
58310;SDS011;45001;52.218;5.154;2022-08-03T02:09:10;4.38;;;1.10;;
58310;SDS011;45001;52.218;5.154;2022-08-03T02:11:37;2.47;;;1.35;;
58310;SDS011;45001;52.218;5.154;2022-08-03T02:14:04;3.25;;;1.00;;
58310;SDS011;45001;52.218;5.154;2022-08-03T02:16:31;1.92;;;0.90;;
58310;SDS011;45001;52.218;5.154;2022-08-03T02:18:58;2.67;;;0.90;;
58310;SDS011;45001;52.218;5.154;2022-08-03T02:21:27;2.30;;;1.20;;
58310;SDS011;45001;52.218;5.154;2022-08-03T02:23:55;2.63;;;0.80;;
58310;SDS011;45001;52.218;5.154;2022-08-03T02:26:21;3.38;;;1.20;;
58310;SDS011;45001;52.218;5.154;2022-08-03T02:28:48;2.25;;;0.85;;
58310;SDS011;45001;52.218;5.154;2022-08-03T02:31:18;2.35;;;1.10;;
58310;SDS011;45001;52.218;5.154;2022-08-03T02:33:49;2.78;;;1.10;;
58310;SDS011;45001;52.218;5.154;2022-08-03T02:36:27;2.85;;;1.20;;
58310;SDS011;45001;52.218;5.154;2022-08-03T02:38:56;2.88;;;1.02;;
58310;SDS011;45001;52.218;5.154;2022-08-03T02:43:54;2.65;;;1.13;;
58310;SDS011;45001;52.218;5.154;2022-08-03T02:46:23;2.50;;;1.02;;
58310;SDS011;45001;52.218;5.154;2022-08-03T02:48:52;3.05;;;0.90;;
58310;SDS011;45001;52.218;5.154;2022-08-03T02:51:19;3.60;;;0.90;;
58310;SDS011;45001;52.218;5.154;2022-08-03T02:53:45;2.97;;;1.15;;
58310;SDS011;45001;52.218;5.154;2022-08-03T02:56:12;2.15;;;0.90;;
58310;SDS011;45001;52.218;5.154;2022-08-03T02:58:44;2.30;;;0.80;;
58310;SDS011;45001;52.218;5.154;2022-08-03T03:01:11;2.28;;;1.13;;
58310;SDS011;45001;52.218;5.154;2022-08-03T03:03:38;4.03;;;1.10;;
58310;SDS011;45001;52.218;5.154;2022-08-03T03:06:04;2.83;;;1.10;;
58310;SDS011;45001;52.218;5.154;2022-08-03T03:08:31;3.78;;;1.48;;
58310;SDS011;45001;52.218;5.154;2022-08-03T03:10:58;1.88;;;0.82;;
58310;SDS011;45001;52.218;5.154;2022-08-03T03:13:26;3.83;;;1.23;;
58310;SDS011;45001;52.218;5.154;2022-08-03T03:15:52;3.03;;;1.00;;
58310;SDS011;45001;52.218;5.154;2022-08-03T03:18:20;1.60;;;0.77;;
58310;SDS011;45001;52.218;5.154;2022-08-03T03:20:46;3.70;;;0.90;;
58310;SDS011;45001;52.218;5.154;2022-08-03T03:23:14;2.60;;;0.98;;
58310;SDS011;45001;52.218;5.154;2022-08-03T03:25:39;2.45;;;0.90;;
58310;SDS011;45001;52.218;5.154;2022-08-03T03:28:05;2.50;;;1.10;;
58310;SDS011;45001;52.218;5.154;2022-08-03T03:30:31;1.80;;;0.85;;
58310;SDS011;45001;52.218;5.154;2022-08-03T03:32:58;2.15;;;0.80;;
58310;SDS011;45001;52.218;5.154;2022-08-03T03:35:24;2.08;;;0.68;;
58310;SDS011;45001;52.218;5.154;2022-08-03T03:37:50;2.60;;;1.00;;
58310;SDS011;45001;52.218;5.154;2022-08-03T03:40:16;2.90;;;0.93;;
58310;SDS011;45001;52.218;5.154;2022-08-03T03:42:41;6.90;;;1.20;;
58310;SDS011;45001;52.218;5.154;2022-08-03T03:45:07;2.40;;;1.10;;
58310;SDS011;45001;52.218;5.154;2022-08-03T03:47:33;1.35;;;0.75;;
58310;SDS011;45001;52.218;5.154;2022-08-03T03:50:00;2.45;;;1.30;;
58310;SDS011;45001;52.218;5.154;2022-08-03T03:52:26;2.67;;;0.93;;
58310;SDS011;45001;52.218;5.154;2022-08-03T03:54:51;1.77;;;0.80;;
58310;SDS011;45001;52.218;5.154;2022-08-03T03:57:16;1.70;;;0.82;;
58310;SDS011;45001;52.218;5.154;2022-08-03T03:59:42;3.78;;;1.08;;
58310;SDS011;45001;52.218;5.154;2022-08-03T04:02:08;3.08;;;1.10;;
58310;SDS011;45001;52.218;5.154;2022-08-03T04:04:35;3.00;;;0.80;;
58310;SDS011;45001;52.218;5.154;2022-08-03T04:07:20;2.83;;;1.25;;
58310;SDS011;45001;52.218;5.154;2022-08-03T04:10:10;2.90;;;1.10;;
58310;SDS011;45001;52.218;5.154;2022-08-03T04:12:56;3.40;;;1.10;;
58310;SDS011;45001;52.218;5.154;2022-08-03T04:15:24;3.10;;;1.17;;
58310;SDS011;45001;52.218;5.154;2022-08-03T04:17:51;2.08;;;0.98;;
58310;SDS011;45001;52.218;5.154;2022-08-03T04:20:20;1.88;;;1.15;;
58310;SDS011;45001;52.218;5.154;2022-08-03T04:22:48;3.05;;;1.00;;
58310;SDS011;45001;52.218;5.154;2022-08-03T04:25:15;7.10;;;1.20;;
58310;SDS011;45001;52.218;5.154;2022-08-03T04:27:43;2.35;;;1.20;;
58310;SDS011;45001;52.218;5.154;2022-08-03T04:30:10;1.90;;;0.93;;
58310;SDS011;45001;52.218;5.154;2022-08-03T04:32:37;2.83;;;1.10;;
58310;SDS011;45001;52.218;5.154;2022-08-03T04:35:03;3.08;;;1.13;;
58310;SDS011;45001;52.218;5.154;2022-08-03T04:37:43;2.95;;;1.00;;
58310;SDS011;45001;52.218;5.154;2022-08-03T04:40:23;4.75;;;1.40;;
58310;SDS011;45001;52.218;5.154;2022-08-03T04:42:54;2.42;;;1.10;;
58310;SDS011;45001;52.218;5.154;2022-08-03T04:45:20;2.47;;;1.05;;
58310;SDS011;45001;52.218;5.154;2022-08-03T04:47:46;3.70;;;1.00;;
58310;SDS011;45001;52.218;5.154;2022-08-03T04:50:13;3.33;;;1.10;;
58310;SDS011;45001;52.218;5.154;2022-08-03T04:52:39;2.40;;;1.10;;
58310;SDS011;45001;52.218;5.154;2022-08-03T04:55:05;1.95;;;1.00;;
58310;SDS011;45001;52.218;5.154;2022-08-03T04:57:30;2.03;;;0.98;;
58310;SDS011;45001;52.218;5.154;2022-08-03T04:59:56;3.13;;;1.42;;
58310;SDS011;45001;52.218;5.154;2022-08-03T05:02:22;4.45;;;0.80;;
58310;SDS011;45001;52.218;5.154;2022-08-03T05:04:47;3.00;;;1.30;;
58310;SDS011;45001;52.218;5.154;2022-08-03T05:07:14;2.08;;;0.98;;
58310;SDS011;45001;52.218;5.154;2022-08-03T05:09:40;2.47;;;0.98;;
58310;SDS011;45001;52.218;5.154;2022-08-03T05:12:06;3.42;;;1.63;;
58310;SDS011;45001;52.218;5.154;2022-08-03T05:14:32;3.70;;;1.40;;
58310;SDS011;45001;52.218;5.154;2022-08-03T05:16:58;3.05;;;1.00;;
58310;SDS011;45001;52.218;5.154;2022-08-03T05:19:26;3.33;;;1.20;;
58310;SDS011;45001;52.218;5.154;2022-08-03T05:21:51;2.17;;;1.13;;
58310;SDS011;45001;52.218;5.154;2022-08-03T05:24:16;3.17;;;1.07;;
58310;SDS011;45001;52.218;5.154;2022-08-03T05:26:42;3.17;;;1.30;;
58310;SDS011;45001;52.218;5.154;2022-08-03T05:29:07;3.58;;;1.15;;
58310;SDS011;45001;52.218;5.154;2022-08-03T05:31:32;3.53;;;1.15;;
58310;SDS011;45001;52.218;5.154;2022-08-03T05:33:58;3.83;;;1.23;;
58310;SDS011;45001;52.218;5.154;2022-08-03T05:36:23;4.07;;;1.65;;
58310;SDS011;45001;52.218;5.154;2022-08-03T05:38:48;3.00;;;1.10;;
58310;SDS011;45001;52.218;5.154;2022-08-03T05:41:14;4.50;;;1.80;;
58310;SDS011;45001;52.218;5.154;2022-08-03T05:43:39;5.13;;;1.63;;
58310;SDS011;45001;52.218;5.154;2022-08-03T05:46:04;6.35;;;1.60;;
58310;SDS011;45001;52.218;5.154;2022-08-03T05:48:29;6.90;;;1.80;;
58310;SDS011;45001;52.218;5.154;2022-08-03T05:50:55;3.92;;;1.40;;
58310;SDS011;45001;52.218;5.154;2022-08-03T05:53:21;8.52;;;2.35;;
58310;SDS011;45001;52.218;5.154;2022-08-03T05:55:46;3.97;;;1.42;;
58310;SDS011;45001;52.218;5.154;2022-08-03T05:58:11;6.07;;;1.53;;
58310;SDS011;45001;52.218;5.154;2022-08-03T06:00:36;5.57;;;1.73;;
58310;SDS011;45001;52.218;5.154;2022-08-03T06:03:08;3.53;;;1.50;;
58310;SDS011;45001;52.218;5.154;2022-08-03T06:05:34;5.82;;;1.90;;
58310;SDS011;45001;52.218;5.154;2022-08-03T06:08:00;6.50;;;2.40;;
58310;SDS011;45001;52.218;5.154;2022-08-03T06:10:27;9.93;;;1.88;;
58310;SDS011;45001;52.218;5.154;2022-08-03T06:12:52;6.72;;;2.05;;
58310;SDS011;45001;52.218;5.154;2022-08-03T06:15:17;8.43;;;2.13;;
58310;SDS011;45001;52.218;5.154;2022-08-03T06:17:49;10.07;;;2.67;;
58310;SDS011;45001;52.218;5.154;2022-08-03T06:20:16;8.52;;;2.50;;
58310;SDS011;45001;52.218;5.154;2022-08-03T06:22:42;8.10;;;1.83;;
58310;SDS011;45001;52.218;5.154;2022-08-03T06:25:08;8.63;;;1.88;;
58310;SDS011;45001;52.218;5.154;2022-08-03T06:27:33;7.05;;;1.90;;
58310;SDS011;45001;52.218;5.154;2022-08-03T06:30:00;5.40;;;1.88;;
58310;SDS011;45001;52.218;5.154;2022-08-03T06:32:25;9.02;;;1.77;;
58310;SDS011;45001;52.218;5.154;2022-08-03T06:34:51;7.43;;;2.45;;
58310;SDS011;45001;52.218;5.154;2022-08-03T06:37:16;8.38;;;2.10;;
58310;SDS011;45001;52.218;5.154;2022-08-03T06:39:42;7.90;;;2.10;;
58310;SDS011;45001;52.218;5.154;2022-08-03T06:42:07;7.50;;;1.90;;
58310;SDS011;45001;52.218;5.154;2022-08-03T06:44:34;10.73;;;2.63;;
58310;SDS011;45001;52.218;5.154;2022-08-03T06:46:59;9.80;;;2.50;;
58310;SDS011;45001;52.218;5.154;2022-08-03T06:49:24;7.75;;;2.58;;
58310;SDS011;45001;52.218;5.154;2022-08-03T06:51:50;8.73;;;2.35;;
58310;SDS011;45001;52.218;5.154;2022-08-03T06:54:17;11.13;;;2.35;;
58310;SDS011;45001;52.218;5.154;2022-08-03T06:56:43;5.63;;;2.35;;
58310;SDS011;45001;52.218;5.154;2022-08-03T06:59:08;9.05;;;2.47;;
58310;SDS011;45001;52.218;5.154;2022-08-03T07:01:33;11.45;;;2.03;;
58310;SDS011;45001;52.218;5.154;2022-08-03T07:03:59;8.50;;;2.10;;
58310;SDS011;45001;52.218;5.154;2022-08-03T07:06:25;6.63;;;2.47;;
58310;SDS011;45001;52.218;5.154;2022-08-03T07:08:50;9.60;;;2.58;;
58310;SDS011;45001;52.218;5.154;2022-08-03T07:11:15;7.60;;;2.15;;
58310;SDS011;45001;52.218;5.154;2022-08-03T07:13:44;6.32;;;2.45;;
58310;SDS011;45001;52.218;5.154;2022-08-03T07:16:09;7.85;;;1.77;;
58310;SDS011;45001;52.218;5.154;2022-08-03T07:18:38;7.07;;;2.30;;
58310;SDS011;45001;52.218;5.154;2022-08-03T07:21:03;7.05;;;2.78;;
58310;SDS011;45001;52.218;5.154;2022-08-03T07:23:29;7.60;;;2.05;;
58310;SDS011;45001;52.218;5.154;2022-08-03T07:25:54;8.75;;;2.42;;
58310;SDS011;45001;52.218;5.154;2022-08-03T07:28:20;7.85;;;2.10;;
58310;SDS011;45001;52.218;5.154;2022-08-03T07:30:45;4.78;;;1.90;;
58310;SDS011;45001;52.218;5.154;2022-08-03T07:33:14;8.27;;;2.17;;
58310;SDS011;45001;52.218;5.154;2022-08-03T07:35:39;6.63;;;2.42;;
58310;SDS011;45001;52.218;5.154;2022-08-03T07:38:05;5.63;;;2.20;;
58310;SDS011;45001;52.218;5.154;2022-08-03T07:40:30;5.97;;;1.83;;
58310;SDS011;45001;52.218;5.154;2022-08-03T07:42:55;5.93;;;2.50;;
58310;SDS011;45001;52.218;5.154;2022-08-03T07:45:22;7.30;;;2.15;;
58310;SDS011;45001;52.218;5.154;2022-08-03T07:47:48;7.35;;;2.25;;
58310;SDS011;45001;52.218;5.154;2022-08-03T07:50:13;8.25;;;2.45;;
58310;SDS011;45001;52.218;5.154;2022-08-03T07:52:39;4.38;;;1.90;;
58310;SDS011;45001;52.218;5.154;2022-08-03T07:55:13;5.05;;;1.80;;
58310;SDS011;45001;52.218;5.154;2022-08-03T07:57:39;5.32;;;2.35;;
58310;SDS011;45001;52.218;5.154;2022-08-03T08:00:05;4.63;;;2.15;;
58310;SDS011;45001;52.218;5.154;2022-08-03T08:02:36;5.47;;;2.22;;
58310;SDS011;45001;52.218;5.154;2022-08-03T08:05:01;6.20;;;2.20;;
58310;SDS011;45001;52.218;5.154;2022-08-03T08:07:26;5.07;;;1.95;;
58310;SDS011;45001;52.218;5.154;2022-08-03T08:09:52;5.75;;;2.22;;
58310;SDS011;45001;52.218;5.154;2022-08-03T08:12:17;6.57;;;2.15;;
58310;SDS011;45001;52.218;5.154;2022-08-03T08:14:42;5.85;;;2.28;;
58310;SDS011;45001;52.218;5.154;2022-08-03T08:17:10;5.63;;;1.90;;
58310;SDS011;45001;52.218;5.154;2022-08-03T08:19:38;6.65;;;2.70;;
58310;SDS011;45001;52.218;5.154;2022-08-03T08:22:07;5.55;;;2.17;;
58310;SDS011;45001;52.218;5.154;2022-08-03T08:24:32;9.32;;;2.45;;
58310;SDS011;45001;52.218;5.154;2022-08-03T08:26:58;4.40;;;2.35;;
58310;SDS011;45001;52.218;5.154;2022-08-03T08:29:25;6.53;;;2.28;;
58310;SDS011;45001;52.218;5.154;2022-08-03T08:31:53;7.32;;;2.30;;
58310;SDS011;45001;52.218;5.154;2022-08-03T08:34:18;5.20;;;2.20;;
58310;SDS011;45001;52.218;5.154;2022-08-03T08:36:44;4.68;;;2.20;;
58310;SDS011;45001;52.218;5.154;2022-08-03T08:39:09;5.32;;;1.92;;
58310;SDS011;45001;52.218;5.154;2022-08-03T08:41:35;6.70;;;2.70;;
58310;SDS011;45001;52.218;5.154;2022-08-03T08:44:00;6.60;;;2.25;;
58310;SDS011;45001;52.218;5.154;2022-08-03T08:46:26;7.47;;;2.53;;
58310;SDS011;45001;52.218;5.154;2022-08-03T08:48:55;6.13;;;1.98;;
58310;SDS011;45001;52.218;5.154;2022-08-03T08:51:25;6.85;;;2.30;;
58310;SDS011;45001;52.218;5.154;2022-08-03T08:53:53;6.95;;;2.55;;
58310;SDS011;45001;52.218;5.154;2022-08-03T08:56:21;7.28;;;2.40;;
58310;SDS011;45001;52.218;5.154;2022-08-03T08:58:53;4.70;;;2.30;;
58310;SDS011;45001;52.218;5.154;2022-08-03T09:01:22;6.47;;;2.40;;
58310;SDS011;45001;52.218;5.154;2022-08-03T09:03:48;6.80;;;2.50;;
58310;SDS011;45001;52.218;5.154;2022-08-03T09:06:14;7.15;;;2.08;;
58310;SDS011;45001;52.218;5.154;2022-08-03T09:08:39;6.03;;;2.40;;
58310;SDS011;45001;52.218;5.154;2022-08-03T09:11:05;6.20;;;2.40;;
58310;SDS011;45001;52.218;5.154;2022-08-03T09:13:31;7.20;;;2.30;;
58310;SDS011;45001;52.218;5.154;2022-08-03T09:16:11;5.82;;;2.10;;
58310;SDS011;45001;52.218;5.154;2022-08-03T09:18:36;5.40;;;2.47;;
58310;SDS011;45001;52.218;5.154;2022-08-03T09:21:21;6.53;;;2.00;;
58310;SDS011;45001;52.218;5.154;2022-08-03T09:23:49;6.47;;;2.40;;
58310;SDS011;45001;52.218;5.154;2022-08-03T09:26:23;5.78;;;2.10;;
58310;SDS011;45001;52.218;5.154;2022-08-03T09:28:56;6.60;;;2.50;;
58310;SDS011;45001;52.218;5.154;2022-08-03T09:31:48;6.03;;;2.35;;
58310;SDS011;45001;52.218;5.154;2022-08-03T09:34:15;5.95;;;2.55;;
58310;SDS011;45001;52.218;5.154;2022-08-03T09:36:42;7.68;;;2.60;;
58310;SDS011;45001;52.218;5.154;2022-08-03T09:39:15;5.15;;;2.38;;
58310;SDS011;45001;52.218;5.154;2022-08-03T09:41:45;5.97;;;2.60;;
58310;SDS011;45001;52.218;5.154;2022-08-03T09:44:13;6.18;;;3.10;;
58310;SDS011;45001;52.218;5.154;2022-08-03T09:46:49;7.90;;;2.78;;
58310;SDS011;45001;52.218;5.154;2022-08-03T09:49:15;5.93;;;2.60;;
58310;SDS011;45001;52.218;5.154;2022-08-03T09:51:40;5.47;;;2.65;;
58310;SDS011;45001;52.218;5.154;2022-08-03T09:54:06;7.68;;;3.03;;
58310;SDS011;45001;52.218;5.154;2022-08-03T09:56:39;4.88;;;2.55;;
58310;SDS011;45001;52.218;5.154;2022-08-03T09:59:05;8.18;;;2.78;;
58310;SDS011;45001;52.218;5.154;2022-08-03T10:01:34;3.90;;;2.75;;
58310;SDS011;45001;52.218;5.154;2022-08-03T10:04:01;6.60;;;2.63;;
58310;SDS011;45001;52.218;5.154;2022-08-03T10:06:27;8.38;;;3.13;;
58310;SDS011;45001;52.218;5.154;2022-08-03T10:11:33;5.70;;;3.08;;
58310;SDS011;45001;52.218;5.154;2022-08-03T10:14:00;7.22;;;3.17;;
58310;SDS011;45001;52.218;5.154;2022-08-03T10:16:30;6.38;;;3.50;;
58310;SDS011;45001;52.218;5.154;2022-08-03T10:18:58;6.45;;;2.85;;
58310;SDS011;45001;52.218;5.154;2022-08-03T10:21:24;4.60;;;3.22;;
58310;SDS011;45001;52.218;5.154;2022-08-03T10:23:52;9.02;;;3.00;;
58310;SDS011;45001;52.218;5.154;2022-08-03T10:26:19;6.63;;;2.97;;
58310;SDS011;45001;52.218;5.154;2022-08-03T10:28:48;5.50;;;2.92;;
58310;SDS011;45001;52.218;5.154;2022-08-03T10:31:14;6.60;;;3.05;;
58310;SDS011;45001;52.218;5.154;2022-08-03T10:33:43;8.38;;;2.95;;
58310;SDS011;45001;52.218;5.154;2022-08-03T10:36:13;6.93;;;3.17;;
58310;SDS011;45001;52.218;5.154;2022-08-03T10:38:42;6.63;;;3.08;;
58310;SDS011;45001;52.218;5.154;2022-08-03T10:41:10;5.43;;;3.17;;
58310;SDS011;45001;52.218;5.154;2022-08-03T10:43:49;7.68;;;3.10;;
58310;SDS011;45001;52.218;5.154;2022-08-03T10:46:20;6.43;;;3.08;;
58310;SDS011;45001;52.218;5.154;2022-08-03T10:48:46;6.55;;;3.05;;
58310;SDS011;45001;52.218;5.154;2022-08-03T10:51:13;4.57;;;2.90;;
58310;SDS011;45001;52.218;5.154;2022-08-03T10:53:40;6.68;;;3.30;;
58310;SDS011;45001;52.218;5.154;2022-08-03T10:59:17;5.18;;;3.10;;
58310;SDS011;45001;52.218;5.154;2022-08-03T11:04:19;5.50;;;3.13;;
58310;SDS011;45001;52.218;5.154;2022-08-03T11:06:45;7.82;;;3.20;;
58310;SDS011;45001;52.218;5.154;2022-08-03T11:11:40;8.02;;;3.13;;
58310;SDS011;45001;52.218;5.154;2022-08-03T11:14:11;7.03;;;3.20;;
58310;SDS011;45001;52.218;5.154;2022-08-03T11:16:38;6.45;;;3.00;;
58310;SDS011;45001;52.218;5.154;2022-08-03T11:19:46;6.00;;;2.97;;
58310;SDS011;45001;52.218;5.154;2022-08-03T11:22:13;6.82;;;3.38;;
58310;SDS011;45001;52.218;5.154;2022-08-03T11:32:50;5.30;;;3.00;;
58310;SDS011;45001;52.218;5.154;2022-08-03T11:35:21;8.20;;;3.38;;
58310;SDS011;45001;52.218;5.154;2022-08-03T11:40:36;5.97;;;2.97;;
58310;SDS011;45001;52.218;5.154;2022-08-03T11:48:34;5.53;;;3.35;;
58310;SDS011;45001;52.218;5.154;2022-08-03T11:51:05;5.38;;;2.83;;
58310;SDS011;45001;52.218;5.154;2022-08-03T11:53:32;5.20;;;3.40;;
58310;SDS011;45001;52.218;5.154;2022-08-03T11:55:59;4.20;;;2.80;;
58310;SDS011;45001;52.218;5.154;2022-08-03T11:58:25;3.80;;;3.08;;
58310;SDS011;45001;52.218;5.154;2022-08-03T12:00:51;7.68;;;3.63;;
58310;SDS011;45001;52.218;5.154;2022-08-03T12:03:17;5.97;;;3.40;;
58310;SDS011;45001;52.218;5.154;2022-08-03T12:05:45;5.15;;;3.22;;
58310;SDS011;45001;52.218;5.154;2022-08-03T12:08:14;6.15;;;3.25;;
58310;SDS011;45001;52.218;5.154;2022-08-03T12:10:45;5.53;;;3.10;;
58310;SDS011;45001;52.218;5.154;2022-08-03T12:13:12;5.80;;;3.22;;
58310;SDS011;45001;52.218;5.154;2022-08-03T12:15:38;6.90;;;3.60;;
58310;SDS011;45001;52.218;5.154;2022-08-03T12:18:11;4.60;;;3.10;;
58310;SDS011;45001;52.218;5.154;2022-08-03T12:20:38;7.53;;;3.40;;
58310;SDS011;45001;52.218;5.154;2022-08-03T12:23:05;6.30;;;3.28;;
58310;SDS011;45001;52.218;5.154;2022-08-03T12:25:31;4.43;;;3.10;;
58310;SDS011;45001;52.218;5.154;2022-08-03T12:28:05;5.85;;;3.28;;
58310;SDS011;45001;52.218;5.154;2022-08-03T12:30:33;5.68;;;3.35;;
58310;SDS011;45001;52.218;5.154;2022-08-03T12:32:58;3.92;;;3.10;;
58310;SDS011;45001;52.218;5.154;2022-08-03T12:35:23;6.00;;;3.55;;
58310;SDS011;45001;52.218;5.154;2022-08-03T12:37:50;6.20;;;2.97;;
58310;SDS011;45001;52.218;5.154;2022-08-03T12:40:23;4.57;;;2.95;;
58310;SDS011;45001;52.218;5.154;2022-08-03T12:42:50;5.47;;;3.30;;
58310;SDS011;45001;52.218;5.154;2022-08-03T12:45:26;5.20;;;3.03;;
58310;SDS011;45001;52.218;5.154;2022-08-03T12:47:56;6.25;;;3.40;;
58310;SDS011;45001;52.218;5.154;2022-08-03T12:50:28;7.05;;;2.80;;
58310;SDS011;45001;52.218;5.154;2022-08-03T12:52:58;4.50;;;2.85;;
58310;SDS011;45001;52.218;5.154;2022-08-03T12:55:24;7.75;;;3.38;;
58310;SDS011;45001;52.218;5.154;2022-08-03T12:57:58;3.75;;;2.67;;
58310;SDS011;45001;52.218;5.154;2022-08-03T13:00:27;4.80;;;2.72;;
58310;SDS011;45001;52.218;5.154;2022-08-03T13:05:31;5.88;;;2.83;;
58310;SDS011;45001;52.218;5.154;2022-08-03T13:08:16;5.25;;;2.97;;
58310;SDS011;45001;52.218;5.154;2022-08-03T13:10:42;5.32;;;2.83;;
58310;SDS011;45001;52.218;5.154;2022-08-03T13:13:07;5.30;;;2.92;;
58310;SDS011;45001;52.218;5.154;2022-08-03T13:15:33;6.33;;;3.17;;
58310;SDS011;45001;52.218;5.154;2022-08-03T13:17:58;6.75;;;3.10;;
58310;SDS011;45001;52.218;5.154;2022-08-03T13:20:23;7.15;;;3.30;;
58310;SDS011;45001;52.218;5.154;2022-08-03T13:22:49;6.05;;;3.00;;
58310;SDS011;45001;52.218;5.154;2022-08-03T13:25:15;4.80;;;2.75;;
58310;SDS011;45001;52.218;5.154;2022-08-03T13:27:40;6.38;;;3.15;;
58310;SDS011;45001;52.218;5.154;2022-08-03T13:30:06;5.47;;;3.20;;
58310;SDS011;45001;52.218;5.154;2022-08-03T13:32:32;4.15;;;2.78;;
58310;SDS011;45001;52.218;5.154;2022-08-03T13:34:58;4.90;;;3.28;;
58310;SDS011;45001;52.218;5.154;2022-08-03T13:37:24;5.63;;;2.95;;
58310;SDS011;45001;52.218;5.154;2022-08-03T13:39:49;4.35;;;2.70;;
58310;SDS011;45001;52.218;5.154;2022-08-03T13:42:15;4.57;;;2.80;;
58310;SDS011;45001;52.218;5.154;2022-08-03T13:44:40;4.53;;;2.80;;
58310;SDS011;45001;52.218;5.154;2022-08-03T13:47:06;4.18;;;2.50;;
58310;SDS011;45001;52.218;5.154;2022-08-03T13:49:31;5.53;;;2.58;;
58310;SDS011;45001;52.218;5.154;2022-08-03T13:51:56;5.68;;;2.40;;
58310;SDS011;45001;52.218;5.154;2022-08-03T13:54:22;4.15;;;2.30;;
58310;SDS011;45001;52.218;5.154;2022-08-03T13:56:47;5.05;;;2.50;;
58310;SDS011;45001;52.218;5.154;2022-08-03T13:59:22;5.07;;;2.85;;
58310;SDS011;45001;52.218;5.154;2022-08-03T14:01:48;3.85;;;2.50;;
58310;SDS011;45001;52.218;5.154;2022-08-03T14:04:15;4.40;;;2.75;;
58310;SDS011;45001;52.218;5.154;2022-08-03T14:06:40;6.10;;;2.75;;
58310;SDS011;45001;52.218;5.154;2022-08-03T14:09:08;5.15;;;2.65;;
58310;SDS011;45001;52.218;5.154;2022-08-03T14:11:33;3.58;;;2.25;;
58310;SDS011;45001;52.218;5.154;2022-08-03T14:13:59;3.63;;;2.28;;
58310;SDS011;45001;52.218;5.154;2022-08-03T14:16:24;5.68;;;2.75;;
58310;SDS011;45001;52.218;5.154;2022-08-03T14:18:49;7.00;;;2.67;;
58310;SDS011;45001;52.218;5.154;2022-08-03T14:21:15;4.28;;;2.67;;
58310;SDS011;45001;52.218;5.154;2022-08-03T14:23:40;3.20;;;2.85;;
58310;SDS011;45001;52.218;5.154;2022-08-03T14:26:06;3.90;;;2.63;;
58310;SDS011;45001;52.218;5.154;2022-08-03T14:28:33;4.10;;;2.25;;
58310;SDS011;45001;52.218;5.154;2022-08-03T14:30:59;5.70;;;2.40;;
58310;SDS011;45001;52.218;5.154;2022-08-03T14:33:25;3.88;;;2.63;;
58310;SDS011;45001;52.218;5.154;2022-08-03T14:35:52;3.60;;;2.72;;
58310;SDS011;45001;52.218;5.154;2022-08-03T14:38:18;4.10;;;2.88;;
58310;SDS011;45001;52.218;5.154;2022-08-03T14:40:44;3.47;;;2.40;;
58310;SDS011;45001;52.218;5.154;2022-08-03T14:43:10;3.58;;;2.40;;
58310;SDS011;45001;52.218;5.154;2022-08-03T14:45:35;3.88;;;2.65;;
58310;SDS011;45001;52.218;5.154;2022-08-03T14:48:01;3.83;;;2.60;;
58310;SDS011;45001;52.218;5.154;2022-08-03T14:50:28;3.35;;;2.40;;
58310;SDS011;45001;52.218;5.154;2022-08-03T14:52:53;5.30;;;2.72;;
58310;SDS011;45001;52.218;5.154;2022-08-03T14:55:18;4.55;;;2.78;;
58310;SDS011;45001;52.218;5.154;2022-08-03T14:57:44;4.60;;;2.75;;
58310;SDS011;45001;52.218;5.154;2022-08-03T15:00:09;5.07;;;2.40;;
58310;SDS011;45001;52.218;5.154;2022-08-03T15:02:35;5.68;;;2.47;;
58310;SDS011;45001;52.218;5.154;2022-08-03T15:05:03;3.15;;;2.25;;
58310;SDS011;45001;52.218;5.154;2022-08-03T15:07:28;4.78;;;2.50;;
58310;SDS011;45001;52.218;5.154;2022-08-03T15:09:56;3.17;;;2.40;;
58310;SDS011;45001;52.218;5.154;2022-08-03T15:12:23;3.65;;;2.55;;
58310;SDS011;45001;52.218;5.154;2022-08-03T15:14:48;4.22;;;2.20;;
58310;SDS011;45001;52.218;5.154;2022-08-03T15:17:14;3.30;;;2.50;;
58310;SDS011;45001;52.218;5.154;2022-08-03T15:19:48;4.03;;;2.70;;
58310;SDS011;45001;52.218;5.154;2022-08-03T15:22:14;4.65;;;2.33;;
58310;SDS011;45001;52.218;5.154;2022-08-03T15:24:41;3.25;;;2.28;;
58310;SDS011;45001;52.218;5.154;2022-08-03T15:27:07;3.05;;;2.25;;
58310;SDS011;45001;52.218;5.154;2022-08-03T15:29:32;4.47;;;2.35;;
58310;SDS011;45001;52.218;5.154;2022-08-03T15:31:57;5.20;;;2.60;;
58310;SDS011;45001;52.218;5.154;2022-08-03T15:34:23;4.72;;;2.40;;
58310;SDS011;45001;52.218;5.154;2022-08-03T15:36:50;2.55;;;2.00;;
58310;SDS011;45001;52.218;5.154;2022-08-03T15:39:17;3.40;;;2.38;;